Estación Meteorológica Peña el Pijo (Robertgarden) [ 11/19/17 19:01:04 CET ]

Fecha Hora Presion(HPa) Temp (°C) Humedad % Rocio (°C) Viento ( m/s) Direccion Lluvia 1Hora(mm) Lluvia 24H(mm) LLuvia Total(mm)
2017-Jul-29 01:01:43 1013.200 17.4 53 7.7         1437.96
2017-Jul-29 02:01:47 1013.000 16.3 53 6.7         1437.96
2017-Jul-29 03:01:17 1013.000 17.2 46 5.4         1437.96
2017-Jul-29 04:01:10 1012.600 15.9 49 5.2         1437.96
2017-Jul-29 05:01:53 1012.600 14.9 51 4.9         1437.96
2017-Jul-29 06:01:41 1012.500 15.9 46 4.2         1437.96
2017-Jul-29 07:01:39 1012.800 14.7 48 3.8         1437.96
2017-Jul-29 08:01:55 1012.800 14.9 53 5.4         1437.96
2017-Jul-29 09:01:50 1013.200 22.3 46 10.0         1437.96
2017-Jul-29 10:01:42 1013.100 29.9 33 11.8         1437.96
2017-Jul-29 11:01:34 1012.900 36.2 23 11.6         1437.96
2017-Jul-29 12:01:27 1012.700 38.8 17 8.8         1437.96
2017-Jul-29 13:01:44 1012.400 39.6 16 8.4         1437.96
2017-Jul-29 14:01:32 1011.900 38.3 15 6.4         1437.96
2017-Jul-29 15:01:31 1011.300 39.5 15 7.3         1437.96
2017-Jul-29 16:01:34 1011.400 37.3 19 9.6         1437.96
2017-Jul-29 17:01:47 1011.200 33.4 23 9.2         1437.96
2017-Jul-29 18:01:47 1011.000 32.9 26 10.7         1437.96
2017-Jul-29 19:02:02 1010.900 34.2 26 11.7         1437.96
2017-Jul-29 20:01:50 1011.300 32.7 26 10.5         1437.96
2017-Jul-29 21:01:41 1011.400 28.5 31 9.7         1437.96
2017-Jul-29 22:01:52 1012.000 23.4 43 10.1         1437.96
2017-Jul-29 23:01:37 1012.800 19.8 43 6.8         1437.96

Temperatura Máxima:39°    Temperatura Mínima:14°
Presión Máxima:1013.200 Hpa    Presión Mínima:1010.900 Hpa


Volver